Time;durP1;ratioP1;P1;durP2;ratioP2;P2;SDS_P1;SDS_P2;PMS_P1;PMS_P2;Temp;Humidity;BMP_temperature;BMP_pressure;BME280_temperature;BME280_humidity;BME280_pressure;Samples;Min_cycle;Max_cycle;Signal;HPM_P1;HPM_P2
2021/05/02 00:01:50;;;;;;;;;;;;;;;7.67;69.57;100435.06;1622768;87;20297;-75
2021/05/02 00:04:17;;;;;;;;;;;;;;;7.66;69.69;100423.50;1616544;87;20309;-75
2021/05/02 00:06:45;;;;;;;;;;;;;;;7.65;69.69;100426.50;1622953;87;20282;-75
2021/05/02 00:09:11;;;;;;;;;;;;;;;7.64;69.76;100435.94;1623627;87;20220;-75
2021/05/02 00:11:37;;;;;;;;;;;;;;;7.63;69.83;100435.52;1616746;87;20223;-75
2021/05/02 00:14:04;;;;;;;;;;;;;;;7.66;69.83;100432.50;1623440;87;20283;-75
2021/05/02 00:16:31;;;;;;;;;;;;;;;7.68;69.83;100428.20;1623173;87;20219;-75
2021/05/02 00:18:57;;;;;;;;;;;;;;;7.69;69.92;100417.89;1625142;86;313864;-75
2021/05/02 00:21:25;;;;;;;;;;;;;;;7.71;69.92;100416.16;1629201;86;20326;-75
2021/05/02 00:23:51;;;;;;;;;;;;;;;7.75;69.90;100420.86;1645565;85;20323;-75
2021/05/02 00:26:18;;;;;;;;;;;;;;;7.76;69.97;100419.56;1633277;86;20317;-75
2021/05/02 00:28:47;;;;;;;;;;;;;;;7.80;70.02;100414.78;1644277;86;20331;-75
2021/05/02 00:31:13;;;;;;;;;;;;;;;7.81;70.02;100408.77;1644369;86;20567;-75
2021/05/02 00:33:41;;;;;;;;;;;;;;;7.82;69.96;100416.91;1644610;86;20296;-75
2021/05/02 00:36:07;;;;;;;;;;;;;;;7.83;70.04;100403.60;1644427;86;20281;-75
2021/05/02 00:38:37;;;;;;;;;;;;;;;7.84;69.95;100384.72;1573727;86;20308;-75
2021/05/02 00:41:15;;;;;;;;;;;;;;;7.85;70.07;100387.28;1557542;91;20295;-75
2021/05/02 00:43:51;;;;;;;;;;;;;;;7.85;70.08;100384.70;1564348;90;20253;-75
2021/05/02 00:46:18;;;;;;;;;;;;;;;7.87;70.06;100376.97;1552569;90;20277;-75
2021/05/02 00:48:51;;;;;;;;;;;;;;;7.86;70.09;100373.97;1567664;91;20262;-75
2021/05/02 00:51:18;;;;;;;;;;;;;;;7.87;70.07;100365.38;1559936;90;20442;-75
2021/05/02 00:54:00;;;;;;;;;;;;;;;7.87;70.13;100368.81;1563387;90;20469;-75
2021/05/02 00:56:30;;;;;;;;;;;;;;;7.86;70.18;100367.11;1562044;89;20282;-75
2021/05/02 00:59:07;;;;;;;;;;;;;;;7.87;70.18;100364.95;1578477;89;20269;-75
2021/05/02 01:01:42;;;;;;;;;;;;;;;7.87;70.24;100354.66;1573557;89;20281;-75
2021/05/02 01:04:10;;;;;;;;;;;;;;;7.89;70.21;100361.08;1575038;89;20267;-75
2021/05/02 01:06:41;;;;;;;;;;;;;;;7.89;70.27;100361.93;1588798;89;20279;-75
2021/05/02 01:09:09;;;;;;;;;;;;;;;7.90;70.29;100366.21;1572774;89;20261;-75
2021/05/02 01:11:41;;;;;;;;;;;;;;;7.91;70.32;100361.48;1579305;89;20284;-75
2021/05/02 01:14:11;;;;;;;;;;;;;;;7.93;70.26;100366.62;1587626;89;20262;-75
2021/05/02 01:16:39;;;;;;;;;;;;;;;7.92;70.34;100363.19;1578798;89;20306;-75
2021/05/02 01:19:11;;;;;;;;;;;;;;;7.95;70.39;100355.87;1574856;89;20792;-75
2021/05/02 01:21:41;;;;;;;;;;;;;;;7.95;70.40;100348.15;1592025;88;20260;-75
2021/05/02 01:24:08;;;;;;;;;;;;;;;7.96;70.39;100342.98;1562458;90;20302;-75
2021/05/02 01:26:42;;;;;;;;;;;;;;;7.97;70.44;100346.41;1585118;89;20275;-75
2021/05/02 01:29:08;;;;;;;;;;;;;;;7.95;70.41;100333.98;1570937;90;20292;-75
2021/05/02 01:31:34;;;;;;;;;;;;;;;7.96;70.48;100334.41;1604125;89;20262;-76
2021/05/02 01:34:01;;;;;;;;;;;;;;;7.98;70.43;100330.09;1591933;88;20300;-75
2021/05/02 01:36:27;;;;;;;;;;;;;;;7.97;70.45;100307.80;1582332;88;20266;-75
2021/05/02 01:38:55;;;;;;;;;;;;;;;7.95;70.45;100303.95;1564118;89;20254;-75
2021/05/02 01:41:21;;;;;;;;;;;;;;;7.94;70.47;100306.10;1577863;89;20258;-75
2021/05/02 01:43:47;;;;;;;;;;;;;;;7.94;70.51;100303.96;1601486;89;20263;-75
2021/05/02 01:46:18;;;;;;;;;;;;;;;7.93;70.53;100299.68;1587181;88;20261;-75
2021/05/02 01:48:49;;;;;;;;;;;;;;;7.93;70.50;100286.81;1554418;90;20339;-75
2021/05/02 01:51:15;;;;;;;;;;;;;;;7.90;70.57;100276.11;1580975;89;20293;-75
2021/05/02 01:53:42;;;;;;;;;;;;;;;7.89;70.58;100276.98;1597373;88;20346;-75
2021/05/02 01:56:16;;;;;;;;;;;;;;;7.90;70.61;100283.83;1584799;89;20305;-75
2021/05/02 01:58:42;;;;;;;;;;;;;;;7.89;70.61;100277.41;1549363;90;20714;-75
2021/05/02 02:01:16;;;;;;;;;;;;;;;7.89;70.63;100270.98;1601003;89;20686;-75
2021/05/02 02:03:44;;;;;;;;;;;;;;;7.89;70.72;100271.83;1588696;89;20308;-75
2021/05/02 02:06:15;;;;;;;;;;;;;;;7.89;70.72;100267.11;1604131;89;20301;-75
2021/05/02 02:08:45;;;;;;;;;;;;;;;7.90;70.68;100270.11;1564500;90;20330;-75
2021/05/02 02:11:11;;;;;;;;;;;;;;;7.88;70.76;100275.70;1585704;89;20318;-75
2021/05/02 02:13:37;;;;;;;;;;;;;;;7.88;70.74;100289.44;1602066;88;20864;-75
2021/05/02 02:16:05;;;;;;;;;;;;;;;7.89;70.80;100296.72;1587535;89;20895;-75
2021/05/02 02:18:32;;;;;;;;;;;;;;;7.90;70.80;100291.55;1582735;89;20331;-75
2021/05/02 02:20:59;;;;;;;;;;;;;;;7.91;70.85;100286.83;1579258;89;20318;-75
2021/05/02 02:23:32;;;;;;;;;;;;;;;7.95;70.84;100292.80;1586941;89;20287;-75
2021/05/02 02:26:36;;;;;;;;;;;;;;;7.95;70.78;100291.51;1586923;89;20288;-75
2021/05/02 02:29:03;;;;;;;;;;;;;;;7.94;70.81;100282.94;1576933;89;20287;-75
2021/05/02 02:31:33;;;;;;;;;;;;;;;7.94;70.74;100262.77;1577851;89;20265;-75
2021/05/02 02:33:59;;;;;;;;;;;;;;;7.90;70.75;100253.38;1551731;91;20195;-75
2021/05/02 02:36:25;;;;;;;;;;;;;;;7.89;70.78;100250.38;1585185;89;20190;-75
2021/05/02 02:38:52;;;;;;;;;;;;;;;7.87;70.84;100249.11;1600763;88;20312;-75
2021/05/02 02:41:18;;;;;;;;;;;;;;;7.86;70.80;100247.41;1578590;89;20300;-75
2021/05/02 02:43:55;;;;;;;;;;;;;;;7.86;70.79;100244.83;1569121;89;20271;-75
2021/05/02 02:46:22;;;;;;;;;;;;;;;7.84;70.77;100243.14;1597836;89;20285;-75
2021/05/02 02:48:54;;;;;;;;;;;;;;;7.80;70.76;100234.60;1574885;88;20321;-75
2021/05/02 02:51:20;;;;;;;;;;;;;;;7.77;70.79;100238.53;1568728;89;20271;-75
2021/05/02 02:53:49;;;;;;;;;;;;;;;7.74;70.80;100242.86;1600634;89;20292;-75
2021/05/02 02:56:20;;;;;;;;;;;;;;;7.73;70.84;100238.58;1580242;89;20290;-75
2021/05/02 02:58:58;;;;;;;;;;;;;;;7.73;70.89;100238.58;1594109;89;20316;-75
2021/05/02 03:01:25;;;;;;;;;;;;;;;7.74;70.86;100232.56;1580020;89;20274;-75
2021/05/02 03:03:54;;;;;;;;;;;;;;;7.75;70.87;100235.55;1593278;89;20284;-75
2021/05/02 03:06:21;;;;;;;;;;;;;;;7.72;70.80;100233.02;1570747;90;20270;-75
2021/05/02 03:08:48;;;;;;;;;;;;;;;7.69;70.84;100232.61;1570851;89;20263;-75
2021/05/02 03:11:16;;;;;;;;;;;;;;;7.68;70.83;100237.77;1595530;87;20278;-75
2021/05/02 03:13:46;;;;;;;;;;;;;;;7.68;70.81;100248.91;1605969;89;20284;-75
2021/05/02 03:16:12;;;;;;;;;;;;;;;7.67;70.81;100256.65;1571748;88;20282;-75
2021/05/02 03:18:53;;;;;;;;;;;;;;;7.63;70.80;100250.68;1571963;89;20274;-75
2021/05/02 03:21:26;;;;;;;;;;;;;;;7.59;70.75;100249.86;1588261;89;20282;-75
2021/05/02 03:23:56;;;;;;;;;;;;;;;7.56;70.80;100243.89;1583607;89;20276;-75
2021/05/02 03:26:24;;;;;;;;;;;;;;;7.54;70.80;100245.62;1585851;89;20300;-75
2021/05/02 03:28:56;;;;;;;;;;;;;;;7.52;70.77;100247.36;1575623;89;20258;-75
2021/05/02 03:31:28;;;;;;;;;;;;;;;7.51;70.84;100249.51;1591354;89;20266;-75
2021/05/02 03:34:01;;;;;;;;;;;;;;;7.49;70.79;100243.52;1577440;89;20284;-75
2021/05/02 03:36:30;;;;;;;;;;;;;;;7.46;70.87;100235.84;1585377;88;20258;-75
2021/05/02 03:38:57;;;;;;;;;;;;;;;7.45;70.87;100235.42;1591989;89;20277;-75
2021/05/02 03:41:41;;;;;;;;;;;;;;;7.44;70.87;100231.99;1592181;89;20289;-75
2021/05/02 03:44:13;;;;;;;;;;;;;;;7.45;70.90;100237.98;1593281;89;20275;-75
2021/05/02 03:46:39;;;;;;;;;;;;;;;7.42;70.84;100227.30;1584855;89;20291;-75
2021/05/02 03:49:07;;;;;;;;;;;;;;;7.39;70.78;100218.75;1578915;89;20273;-76
2021/05/02 03:51:36;;;;;;;;;;;;;;;7.36;70.90;100215.78;1584712;89;20275;-76
2021/05/02 03:54:03;;;;;;;;;;;;;;;7.36;70.92;100213.64;1574294;89;20278;-76
2021/05/02 03:56:35;;;;;;;;;;;;;;;7.33;70.88;100207.23;1592179;89;20268;-76
2021/05/02 03:59:16;;;;;;;;;;;;;;;7.29;70.98;100203.41;1587732;89;20280;-76
2021/05/02 04:01:56;;;;;;;;;;;;;;;7.28;70.97;100208.12;1608938;89;20308;-76
2021/05/02 04:04:26;;;;;;;;;;;;;;;7.24;71.07;100201.34;1597971;89;20252;-76
2021/05/02 04:06:57;;;;;;;;;;;;;;;7.23;71.19;100201.36;1587911;86;20287;-76
2021/05/02 04:09:23;;;;;;;;;;;;;;;7.24;71.32;100201.34;1586744;89;20293;-77
2021/05/02 04:11:50;;;;;;;;;;;;;;;7.22;71.38;100200.50;1604032;89;20274;-76
2021/05/02 04:14:17;;;;;;;;;;;;;;;7.19;71.45;100197.10;1600088;89;20283;-76
2021/05/02 04:16:44;;;;;;;;;;;;;;;7.15;71.52;100188.56;1582798;89;20275;-76
2021/05/02 04:19:11;;;;;;;;;;;;;;;7.12;71.59;100188.59;1579156;89;20261;-76
2021/05/02 04:21:38;;;;;;;;;;;;;;;7.10;71.54;100195.47;1563912;90;20324;-76
2021/05/02 04:24:05;;;;;;;;;;;;;;;7.06;71.59;100194.22;1578049;89;20297;-76
2021/05/02 04:26:31;;;;;;;;;;;;;;;7.04;71.67;100192.95;1585218;89;20710;-76
2021/05/02 04:28:57;;;;;;;;;;;;;;;7.01;71.68;100186.55;1603100;88;20247;-76
2021/05/02 04:31:23;;;;;;;;;;;;;;;6.97;71.72;100183.14;1580556;88;20299;-76
2021/05/02 04:33:55;;;;;;;;;;;;;;;6.96;71.79;100179.30;1590088;89;20273;-76
2021/05/02 04:36:22;;;;;;;;;;;;;;;6.93;71.88;100178.04;1583611;89;20292;-76
2021/05/02 04:38:48;;;;;;;;;;;;;;;6.89;71.94;100167.36;1596276;88;20760;-76
2021/05/02 04:41:20;;;;;;;;;;;;;;;6.86;72.08;100167.39;1602147;89;20301;-76
2021/05/02 04:43:46;;;;;;;;;;;;;;;6.80;72.14;100163.15;1592063;88;20267;-76
2021/05/02 04:46:12;;;;;;;;;;;;;;;6.78;72.18;100162.31;1590882;89;20196;-76
2021/05/02 04:48:40;;;;;;;;;;;;;;;6.73;72.31;100160.23;1609646;87;319209;-76
2021/05/02 04:51:06;;;;;;;;;;;;;;;6.70;72.45;100158.98;1641909;86;20261;-76
2021/05/02 04:53:33;;;;;;;;;;;;;;;6.69;72.52;100155.13;1643256;86;20282;-76
2021/05/02 04:56:00;;;;;;;;;;;;;;;6.65;72.56;100154.30;1631562;87;36608;-76
2021/05/02 04:58:25;;;;;;;;;;;;;;;6.63;72.73;100156.88;1590064;88;20205;-75
2021/05/02 05:00:53;;;;;;;;;;;;;;;6.60;72.90;100153.05;1611481;87;20264;-75
2021/05/02 05:03:20;;;;;;;;;;;;;;;6.57;72.92;100152.22;1641069;86;20252;-75
2021/05/02 05:05:46;;;;;;;;;;;;;;;6.54;72.94;100146.67;1643663;86;20150;-75
2021/05/02 05:08:13;;;;;;;;;;;;;;;6.50;73.06;100144.14;1654909;85;20284;-75
2021/05/02 05:10:39;;;;;;;;;;;;;;;6.47;73.17;100137.73;1665012;85;20302;-75
2021/05/02 05:13:07;;;;;;;;;;;;;;;6.42;73.18;100133.06;1654019;85;20290;-75
2021/05/02 05:15:34;;;;;;;;;;;;;;;6.39;73.40;100136.50;1654659;85;20275;-75
2021/05/02 05:18:00;;;;;;;;;;;;;;;6.36;73.90;100133.95;1654992;85;20276;-75
2021/05/02 05:20:26;;;;;;;;;;;;;;;6.34;74.34;100130.98;1665731;85;20286;-77
2021/05/02 05:22:52;;;;;;;;;;;;;;;6.31;74.37;100131.84;1669986;85;20255;-77
2021/05/02 05:25:18;;;;;;;;;;;;;;;6.26;76.05;100128.45;1661169;85;20268;-77
2021/05/02 05:27:44;;;;;;;;;;;;;;;6.24;76.91;100127.61;1669259;84;20162;-77
2021/05/02 05:30:17;;;;;;;;;;;;;;;6.23;76.95;100122.94;1653702;85;20267;-77
2021/05/02 05:32:43;;;;;;;;;;;;;;;6.22;77.06;100109.68;1654845;85;20263;-77
2021/05/02 05:35:10;;;;;;;;;;;;;;;6.19;77.14;100102.00;1657121;85;20731;-78
2021/05/02 05:37:37;;;;;;;;;;;;;;;6.20;77.14;100096.00;1650996;85;20302;-78
2021/05/02 05:40:06;;;;;;;;;;;;;;;6.20;77.03;100092.58;1631587;86;20257;-80
2021/05/02 05:42:32;;;;;;;;;;;;;;;6.19;76.67;100091.73;1634832;86;20265;-80
2021/05/02 05:45:01;;;;;;;;;;;;;;;6.21;75.75;100090.01;1622183;87;20267;-80
2021/05/02 05:47:27;;;;;;;;;;;;;;;6.19;75.32;100085.31;1632379;86;20256;-80
2021/05/02 05:49:53;;;;;;;;;;;;;;;6.18;75.37;100086.17;1610078;87;20228;-80
2021/05/02 05:52:19;;;;;;;;;;;;;;;6.20;75.74;100083.59;1635892;86;20660;-80
2021/05/02 05:54:46;;;;;;;;;;;;;;;6.23;75.55;100093.84;1615715;87;20288;-80
2021/05/02 05:57:13;;;;;;;;;;;;;;;6.24;75.49;100089.10;1643661;86;20254;-80
2021/05/02 05:59:40;;;;;;;;;;;;;;;6.27;75.41;100086.52;1607735;87;20266;-80
2021/05/02 06:02:06;;;;;;;;;;;;;;;6.25;75.20;100082.67;1635404;86;20266;-80
2021/05/02 06:04:32;;;;;;;;;;;;;;;6.24;75.44;100085.25;1643284;86;20295;-80
2021/05/02 06:06:59;;;;;;;;;;;;;;;6.25;75.45;100093.38;1630986;86;20293;-80
2021/05/02 06:09:25;;;;;;;;;;;;;;;6.24;75.16;100092.52;1642662;85;20219;-80
2021/05/02 06:11:52;;;;;;;;;;;;;;;6.24;75.47;100106.64;1646352;85;20283;-80
2021/05/02 06:14:20;;;;;;;;;;;;;;;6.25;75.43;100110.91;1644136;86;20275;-80
2021/05/02 06:16:48;;;;;;;;;;;;;;;6.28;75.39;100108.76;1643215;85;20312;-81
2021/05/02 06:19:14;;;;;;;;;;;;;;;6.26;75.48;100107.91;1646011;86;20256;-81
2021/05/02 06:21:40;;;;;;;;;;;;;;;6.28;75.64;100112.61;1654148;85;20221;-81
2021/05/02 06:24:08;;;;;;;;;;;;;;;6.30;75.64;100111.73;1645286;85;20475;-81
2021/05/02 06:26:34;;;;;;;;;;;;;;;6.29;75.59;100113.88;1641090;85;20312;-81
2021/05/02 06:29:06;;;;;;;;;;;;;;;6.27;75.69;100122.03;1653378;85;20333;-80
2021/05/02 06:31:32;;;;;;;;;;;;;;;6.28;75.88;100119.88;1626228;87;20332;-81
2021/05/02 06:33:59;;;;;;;;;;;;;;;6.29;75.96;100123.30;1654632;85;20291;-81
2021/05/02 06:36:33;;;;;;;;;;;;;;;6.29;76.08;100128.44;1660196;85;20315;-81
2021/05/02 06:38:59;;;;;;;;;;;;;;;6.29;76.12;100115.59;1651139;85;20241;-82
2021/05/02 06:41:25;;;;;;;;;;;;;;;6.29;76.22;100115.17;1645541;83;20275;-81
2021/05/02 06:43:51;;;;;;;;;;;;;;;6.31;76.30;100116.44;1642548;85;20339;-81
2021/05/02 06:46:50;;;;;;;;;;;;;;;6.33;76.15;100117.28;1657712;85;20212;-82
2021/05/02 06:49:01;;;;;;;;;;;;;;;6.33;76.18;100113.86;1639339;85;20331;-82
2021/05/02 06:51:27;;;;;;;;;;;;;;;6.31;76.80;100112.59;1647671;85;20288;-82
2021/05/02 06:53:55;;;;;;;;;;;;;;;6.29;76.80;100109.18;1632798;87;20305;-82
2021/05/02 06:56:22;;;;;;;;;;;;;;;6.29;76.70;100111.75;1636299;87;20297;-82
2021/05/02 06:58:49;;;;;;;;;;;;;;;6.28;76.37;100103.19;1641064;87;20272;-83
2021/05/02 07:01:16;;;;;;;;;;;;;;;6.28;76.34;100103.19;1628592;87;20283;-83
2021/05/02 07:03:42;;;;;;;;;;;;;;;6.26;76.23;100091.23;1655723;85;20746;-82
2021/05/02 07:06:08;;;;;;;;;;;;;;;6.26;76.28;100087.38;1665693;85;20273;-83
2021/05/02 07:08:34;;;;;;;;;;;;;;;6.26;76.33;100081.81;1653262;85;20254;-82
2021/05/02 07:11:00;;;;;;;;;;;;;;;6.25;76.41;100074.13;1671863;85;20264;-83
2021/05/02 07:13:27;;;;;;;;;;;;;;;6.23;76.21;100075.88;1653204;85;20193;-82
2021/05/02 07:15:54;;;;;;;;;;;;;;;6.23;76.51;100075.88;1665148;85;20233;-82
2021/05/02 07:18:20;;;;;;;;;;;;;;;6.23;76.46;100072.88;1642900;86;20255;-82
2021/05/02 07:20:48;;;;;;;;;;;;;;;6.24;76.56;100071.98;1652572;85;20269;-82
2021/05/02 07:23:15;;;;;;;;;;;;;;;6.24;76.40;100065.56;1655637;85;20264;-82
2021/05/02 07:25:41;;;;;;;;;;;;;;;6.22;76.51;100063.91;1666186;85;20280;-82
2021/05/02 07:28:07;;;;;;;;;;;;;;;6.21;76.66;100054.06;1672959;85;20225;-82
2021/05/02 07:30:33;;;;;;;;;;;;;;;6.23;76.73;100056.63;1656699;85;20220;-82
2021/05/02 07:32:59;;;;;;;;;;;;;;;6.24;76.78;100046.74;1663872;85;20199;-81
2021/05/02 07:35:25;;;;;;;;;;;;;;;6.23;76.58;100045.07;1676480;85;20257;-81
2021/05/02 07:37:51;;;;;;;;;;;;;;;6.21;76.64;100045.08;1666622;85;20266;-81
2021/05/02 07:40:17;;;;;;;;;;;;;;;6.21;76.67;100038.66;1669025;84;20249;-81
2021/05/02 07:42:43;;;;;;;;;;;;;;;6.22;76.83;100036.95;1676994;85;20671;-81
2021/05/02 07:45:09;;;;;;;;;;;;;;;6.23;76.90;100035.66;1668284;84;20267;-81
2021/05/02 07:47:35;;;;;;;;;;;;;;;6.24;76.83;100028.34;1655643;85;20296;-81
2021/05/02 07:50:03;;;;;;;;;;;;;;;6.23;76.73;100021.97;1634463;86;20266;-80
2021/05/02 07:52:29;;;;;;;;;;;;;;;6.21;77.63;100024.55;1650448;86;20461;-80
2021/05/02 07:54:55;;;;;;;;;;;;;;;6.20;76.98;100014.28;1613078;87;20258;-80
2021/05/02 07:57:21;;;;;;;;;;;;;;;6.18;76.99;100009.17;1603707;88;21127;-79
2021/05/02 07:59:47;;;;;;;;;;;;;;;6.17;76.88;100006.61;1664598;85;20815;-79
2021/05/02 08:02:14;;;;;;;;;;;;;;;6.15;76.98;100007.05;1651936;86;20304;-79
2021/05/02 08:04:39;;;;;;;;;;;;;;;6.13;77.96;100000.65;1656870;85;20296;-79
2021/05/02 08:07:06;;;;;;;;;;;;;;;6.14;78.04;99993.80;1657597;85;20267;-79
2021/05/02 08:09:33;;;;;;;;;;;;;;;6.18;77.36;99994.20;1630004;86;20262;-79
2021/05/02 08:11:59;;;;;;;;;;;;;;;6.15;77.23;100002.77;1616739;87;20552;-79
2021/05/02 08:14:26;;;;;;;;;;;;;;;6.16;77.36;100002.34;1634870;86;20534;-79
2021/05/02 08:16:51;;;;;;;;;;;;;;;6.14;77.10;100002.78;1639778;86;20151;-81
2021/05/02 08:19:18;;;;;;;;;;;;;;;6.12;77.40;100007.93;1632844;86;20333;-79
2021/05/02 08:21:44;;;;;;;;;;;;;;;6.12;77.64;100001.94;1645331;86;20237;-80
2021/05/02 08:24:12;;;;;;;;;;;;;;;6.13;77.64;100002.36;1646084;86;20280;-80
2021/05/02 08:26:38;;;;;;;;;;;;;;;6.16;77.51;100003.63;1656815;86;20448;-81
2021/05/02 08:29:05;;;;;;;;;;;;;;;6.16;77.46;100010.05;1650128;86;20472;-79
2021/05/02 08:31:31;;;;;;;;;;;;;;;6.15;77.49;100001.48;1664196;85;20264;-79
2021/05/02 08:33:57;;;;;;;;;;;;;;;6.16;77.98;100009.61;1680735;84;20169;-76
2021/05/02 08:36:23;;;;;;;;;;;;;;;6.16;77.59;99998.49;1676628;84;20281;-79
2021/05/02 08:38:51;;;;;;;;;;;;;;;6.16;77.59;100005.77;1664545;85;20263;-80
2021/05/02 08:41:17;;;;;;;;;;;;;;;6.15;77.50;100001.48;1656293;85;20245;-82
2021/05/02 08:43:43;;;;;;;;;;;;;;;6.14;77.63;99996.37;1654678;85;20265;-79
2021/05/02 08:46:09;;;;;;;;;;;;;;;6.13;77.75;100004.50;1637339;86;20259;-78
2021/05/02 08:48:37;;;;;;;;;;;;;;;6.14;77.62;100000.22;1665240;84;20252;-83
2021/05/02 08:51:03;;;;;;;;;;;;;;;6.12;77.60;99998.95;1676604;84;20281;-79
2021/05/02 08:53:30;;;;;;;;;;;;;;;6.13;77.67;100001.08;1659371;85;20264;-79
2021/05/02 08:55:57;;;;;;;;;;;;;;;6.13;77.77;99999.37;1670299;84;20263;-77
2021/05/02 08:58:24;;;;;;;;;;;;;;;6.12;77.73;99987.83;1681730;84;20283;-77
2021/05/02 09:00:53;;;;;;;;;;;;;;;6.11;81.36;99979.27;1655900;84;20247;-79
2021/05/02 09:03:19;;;;;;;;;;;;;;;6.13;81.70;99985.25;1646319;86;20278;-76
2021/05/02 09:05:49;;;;;;;;;;;;;;;6.13;82.84;99975.41;1628979;86;20266;-79
2021/05/02 09:08:35;;;;;;;;;;;;;;;6.15;81.97;99969.84;1637672;87;20235;-81
2021/05/02 09:11:02;;;;;;;;;;;;;;;6.18;81.54;99972.38;1636894;86;20158;-79
2021/05/02 09:13:29;;;;;;;;;;;;;;;6.20;81.21;99956.09;1652966;85;20816;-81
2021/05/02 09:16:01;;;;;;;;;;;;;;;6.23;80.62;99960.35;1666750;84;20293;-80
2021/05/02 09:18:46;;;;;;;;;;;;;;;6.23;80.66;99955.22;1639559;86;20262;-79
2021/05/02 09:21:27;;;;;;;;;;;;;;;6.21;80.74;99945.39;1638017;86;20296;-77
2021/05/02 09:23:58;;;;;;;;;;;;;;;6.19;80.87;99951.83;1667209;84;20293;-78
2021/05/02 09:26:31;;;;;;;;;;;;;;;6.21;80.90;99949.25;1671210;84;20295;-78
2021/05/02 09:28:59;;;;;;;;;;;;;;;6.21;80.08;99940.27;1671138;84;20250;-78
2021/05/02 09:31:31;;;;;;;;;;;;;;;6.20;80.24;99938.56;1695228;83;20165;-78
2021/05/02 09:34:14;;;;;;;;;;;;;;;6.19;80.09;99935.14;1670540;84;20480;-78
2021/05/02 09:36:55;;;;;;;;;;;;;;;6.19;79.76;99935.58;1652939;84;20278;-78
2021/05/02 09:39:41;;;;;;;;;;;;;;;6.18;81.09;99930.88;1676014;83;20542;-79
2021/05/02 09:42:18;;;;;;;;;;;;;;;6.22;83.85;99933.83;1681153;84;20542;-79
2021/05/02 09:44:50;;;;;;;;;;;;;;;6.23;84.62;99927.83;1641938;87;20276;-78
2021/05/02 09:47:25;;;;;;;;;;;;;;;6.21;84.79;99924.86;1630708;87;20280;-78
2021/05/02 09:50:16;;;;;;;;;;;;;;;6.26;84.62;99914.08;1668478;85;20282;-78
2021/05/02 09:52:50;;;;;;;;;;;;;;;6.25;84.87;99920.94;1676262;84;20254;-78
2021/05/02 09:55:30;;;;;;;;;;;;;;;6.23;84.69;99916.28;1664282;85;20287;-78
2021/05/02 09:58:21;;;;;;;;;;;;;;;6.23;84.52;99909.86;1632281;87;20606;-78
2021/05/02 10:00:54;;;;;;;;;;;;;;;6.17;85.62;99905.22;1631784;87;20259;-78
2021/05/02 10:03:21;;;;;;;;;;;;;;;6.17;85.79;99913.77;1637619;87;20271;-78
2021/05/02 10:05:59;;;;;;;;;;;;;;;6.20;85.05;99911.17;1664291;85;20210;-78
2021/05/02 10:08:36;;;;;;;;;;;;;;;6.21;84.77;99911.59;1627487;87;20505;-78
2021/05/02 10:11:07;;;;;;;;;;;;;;;6.19;84.55;99903.05;1633116;87;20282;-78
2021/05/02 10:13:40;;;;;;;;;;;;;;;6.19;84.54;99900.48;1631452;87;20272;-78
2021/05/02 10:16:07;;;;;;;;;;;;;;;6.19;84.01;99900.92;1636264;87;20760;-78
2021/05/02 10:18:35;;;;;;;;;;;;;;;6.19;83.53;99910.76;1645211;86;20271;-78
2021/05/02 10:21:02;;;;;;;;;;;;;;;6.20;83.07;99908.61;1612852;86;20262;-80
2021/05/02 10:23:28;;;;;;;;;;;;;;;6.17;82.40;99912.48;1622728;87;20272;-78
2021/05/02 10:25:56;;;;;;;;;;;;;;;6.19;82.31;99904.77;1654216;86;20256;-78
2021/05/02 10:28:29;;;;;;;;;;;;;;;6.20;82.21;99905.19;1597335;88;20289;-78
2021/05/02 10:30:58;;;;;;;;;;;;;;;6.22;81.06;99903.03;1606168;88;20262;-78
2021/05/02 10:33:41;;;;;;;;;;;;;;;6.25;82.51;99905.97;1656778;84;20279;-78
2021/05/02 10:36:13;;;;;;;;;;;;;;;6.27;82.47;99911.50;1658160;86;20158;-78
2021/05/02 10:38:48;;;;;;;;;;;;;;;6.26;82.78;99915.37;1637058;86;20259;-78
2021/05/02 10:41:32;;;;;;;;;;;;;;;6.27;81.36;99920.48;1658286;86;20284;-78
2021/05/02 10:44:14;;;;;;;;;;;;;;;6.29;80.61;99911.05;1653781;86;20253;-78
2021/05/02 10:46:53;;;;;;;;;;;;;;;6.30;80.20;99910.63;1616426;86;20363;-78
2021/05/02 10:49:23;;;;;;;;;;;;;;;6.28;80.19;99915.77;1596535;88;20219;-78
2021/05/02 10:51:55;;;;;;;;;;;;;;;6.30;80.11;99915.75;1655425;86;20180;-78
2021/05/02 10:54:23;;;;;;;;;;;;;;;6.32;80.14;99923.02;1647917;85;20257;-78
2021/05/02 10:56:57;;;;;;;;;;;;;;;6.32;80.00;99930.71;1652846;86;20286;-78
2021/05/02 10:59:47;;;;;;;;;;;;;;;6.29;80.15;99925.17;1654927;86;20497;-78
2021/05/02 11:02:40;;;;;;;;;;;;;;;6.26;79.88;99924.35;1649436;86;20255;-78
2021/05/02 11:05:07;;;;;;;;;;;;;;;6.25;79.89;99935.48;1637326;87;20176;-78
2021/05/02 11:07:38;;;;;;;;;;;;;;;6.24;79.80;99935.92;1635597;87;20268;-78
2021/05/02 11:10:09;;;;;;;;;;;;;;;6.24;79.76;99937.64;1591574;85;326261;-80
2021/05/02 11:12:36;;;;;;;;;;;;;;;6.25;80.01;99937.63;1596972;88;20566;-79
2021/05/02 11:15:23;;;;;;;;;;;;;;;6.29;79.90;99943.58;1598893;88;20651;-80
2021/05/02 11:17:49;;;;;;;;;;;;;;;6.25;79.78;99947.04;1600777;88;20340;-81
2021/05/02 11:20:19;;;;;;;;;;;;;;;6.22;79.69;99947.10;1596251;88;20363;-81
2021/05/02 11:22:47;;;;;;;;;;;;;;;6.20;79.90;99962.52;1595383;88;20339;-79
2021/05/02 11:25:15;;;;;;;;;;;;;;;6.21;80.02;99958.23;1595467;89;20319;-79
2021/05/02 11:27:48;;;;;;;;;;;;;;;6.23;79.82;99967.62;1595611;89;20478;-79
2021/05/02 11:30:17;;;;;;;;;;;;;;;6.21;79.83;99964.22;1612711;87;20475;-80
2021/05/02 11:32:43;;;;;;;;;;;;;;;6.20;79.78;99970.65;1641306;86;20297;-80
2021/05/02 11:35:11;;;;;;;;;;;;;;;6.18;79.68;99974.52;1645664;86;20629;-79
2021/05/02 11:37:47;;;;;;;;;;;;;;;6.16;79.93;99979.23;1620011;87;20377;-80
2021/05/02 11:40:32;;;;;;;;;;;;;;;6.16;79.86;99983.09;1642671;86;20290;-77
2021/05/02 11:43:13;;;;;;;;;;;;;;;6.14;79.86;99988.23;1636608;87;20551;-77
2021/05/02 11:45:42;;;;;;;;;;;;;;;6.15;79.89;99992.94;1640411;87;20316;-79
2021/05/02 11:48:19;;;;;;;;;;;;;;;6.14;79.94;100004.06;1595266;88;20581;-77
2021/05/02 11:50:46;;;;;;;;;;;;;;;6.14;79.98;100003.64;1640989;87;20201;-78
2021/05/02 11:53:12;;;;;;;;;;;;;;;6.15;80.12;100014.75;1591136;88;20260;-78
2021/05/02 11:55:42;;;;;;;;;;;;;;;6.13;79.96;100021.19;1664790;85;20556;-78
2021/05/02 11:58:11;;;;;;;;;;;;;;;6.13;80.01;100025.03;1621174;87;20182;-78
2021/05/02 12:00:42;;;;;;;;;;;;;;;6.11;80.07;100025.47;1631753;87;20152;-78
2021/05/02 12:03:09;;;;;;;;;;;;;;;6.14;80.15;100028.45;1651488;85;20148;-78
2021/05/02 12:05:50;;;;;;;;;;;;;;;6.16;80.18;100030.58;1622225;87;20288;-79
2021/05/02 12:08:17;;;;;;;;;;;;;;;6.11;79.90;100034.89;1592630;88;20303;-78
2021/05/02 12:10:45;;;;;;;;;;;;;;;6.07;80.08;100040.91;1594603;88;20708;-77
2021/05/02 12:13:34;;;;;;;;;;;;;;;6.08;80.20;100047.75;1591071;89;20154;-78
2021/05/02 12:16:26;;;;;;;;;;;;;;;6.10;80.31;100054.57;1593733;88;20317;-78
2021/05/02 12:19:00;;;;;;;;;;;;;;;6.11;80.04;100052.86;1589287;88;20354;-77
2021/05/02 12:21:35;;;;;;;;;;;;;;;6.07;80.20;100055.02;1621879;87;20578;-78
2021/05/02 12:24:13;;;;;;;;;;;;;;;6.04;80.17;100062.74;1646626;85;20302;-78
2021/05/02 12:26:43;;;;;;;;;;;;;;;5.99;80.13;100065.34;1650925;85;20283;-78
2021/05/02 12:29:13;;;;;;;;;;;;;;;5.96;80.19;100061.50;1630132;85;20301;-77
2021/05/02 12:31:40;;;;;;;;;;;;;;;5.95;80.15;100062.37;1654716;85;20712;-79
2021/05/02 12:34:07;;;;;;;;;;;;;;;5.90;80.11;100074.37;1616625;87;20613;-77
2021/05/02 12:36:33;;;;;;;;;;;;;;;5.88;80.29;100080.76;1636670;87;20323;-79
2021/05/02 12:39:14;;;;;;;;;;;;;;;5.84;80.17;100086.77;1639087;87;20584;-79
2021/05/02 12:41:42;;;;;;;;;;;;;;;5.80;80.16;100079.09;1638426;87;20304;-79
2021/05/02 12:44:19;;;;;;;;;;;;;;;5.80;80.25;100088.08;1638558;87;20527;-79
2021/05/02 12:46:51;;;;;;;;;;;;;;;5.75;80.21;100089.80;1637058;87;20158;-80
2021/05/02 12:49:31;;;;;;;;;;;;;;;5.70;80.31;100094.99;1628771;87;20522;-80
2021/05/02 12:52:04;;;;;;;;;;;;;;;5.68;80.36;100089.02;1645484;87;20268;-80
2021/05/02 12:54:34;;;;;;;;;;;;;;;5.66;80.32;100109.97;1634407;87;20273;-80
2021/05/02 12:57:11;;;;;;;;;;;;;;;5.63;80.34;100102.29;1618049;87;20485;-80
2021/05/02 12:59:53;;;;;;;;;;;;;;;5.60;80.26;100112.56;1629386;87;20461;-80
2021/05/02 13:02:28;;;;;;;;;;;;;;;5.54;80.26;100108.30;1633518;87;20255;-80